createdAt,value
2019-04-20T00:01:46.934Z,16.10
2019-04-20T00:04:24.425Z,16.10
2019-04-20T00:06:51.346Z,16.00
2019-04-20T00:09:24.617Z,16.00
2019-04-20T00:12:02.975Z,16.00
2019-04-20T00:14:28.731Z,15.90
2019-04-20T00:16:54.701Z,15.90
2019-04-20T00:19:33.663Z,15.90
2019-04-20T00:22:04.610Z,15.90
2019-04-20T00:24:37.523Z,15.90
2019-04-20T00:27:31.408Z,15.90
2019-04-20T00:29:54.739Z,15.90
2019-04-20T00:32:19.935Z,15.90
2019-04-20T00:34:44.126Z,15.90
2019-04-20T00:37:13.089Z,15.90
2019-04-20T00:39:42.772Z,15.80
2019-04-20T00:42:15.042Z,15.80
2019-04-20T00:44:45.765Z,15.80
2019-04-20T00:47:30.903Z,15.70
2019-04-20T00:50:00.060Z,15.70
2019-04-20T00:52:31.547Z,15.70
2019-04-20T00:54:49.462Z,15.70
2019-04-20T00:57:30.555Z,15.60
2019-04-20T01:00:11.137Z,15.60
2019-04-20T01:02:37.224Z,15.60
2019-04-20T01:05:11.109Z,15.60
2019-04-20T01:07:49.809Z,15.50
2019-04-20T01:10:17.292Z,15.50
2019-04-20T01:12:50.836Z,15.50
2019-04-20T01:15:28.061Z,15.50
2019-04-20T01:17:50.278Z,15.50
2019-04-20T01:20:22.687Z,15.50
2019-04-20T01:22:59.055Z,15.40
2019-04-20T01:25:29.013Z,15.40
2019-04-20T01:28:07.676Z,15.40
2019-04-20T01:30:33.941Z,15.40
2019-04-20T01:33:12.819Z,15.30
2019-04-20T01:35:48.125Z,15.30
2019-04-20T01:38:16.383Z,15.30
2019-04-20T01:40:31.927Z,15.30
2019-04-20T01:43:01.690Z,15.30
2019-04-20T01:45:35.749Z,15.30
2019-04-20T01:48:04.438Z,15.20
2019-04-20T01:50:37.963Z,15.20
2019-04-20T01:53:16.699Z,15.10
2019-04-20T01:55:51.971Z,15.10
2019-04-20T01:58:58.267Z,15.00
2019-04-20T02:01:24.366Z,15.00
2019-04-20T02:03:58.896Z,15.00
2019-04-20T02:06:30.466Z,15.00
2019-04-20T02:09:06.790Z,15.00
2019-04-20T02:11:38.401Z,15.00
2019-04-20T02:14:08.323Z,14.90
2019-04-20T02:17:05.412Z,14.90
2019-04-20T02:19:43.155Z,14.90
2019-04-20T02:22:09.798Z,14.90
2019-04-20T02:24:29.907Z,14.90
2019-04-20T02:26:59.904Z,14.80
2019-04-20T02:29:56.835Z,14.80
2019-04-20T02:32:47.151Z,14.70
2019-04-20T02:35:18.298Z,14.60
2019-04-20T02:38:03.473Z,14.60
2019-04-20T02:40:35.922Z,14.50
2019-04-20T02:42:59.771Z,14.50
2019-04-20T02:45:38.721Z,14.40
2019-04-20T02:50:36.199Z,14.30
2019-04-20T02:53:04.833Z,14.20
2019-04-20T02:55:31.665Z,14.10
2019-04-20T02:58:00.719Z,14.10
2019-04-20T03:00:31.000Z,14.00
2019-04-20T03:02:53.683Z,13.90
2019-04-20T03:05:23.654Z,13.90
2019-04-20T03:08:04.347Z,13.80
2019-04-20T03:10:43.384Z,13.80
2019-04-20T03:13:08.772Z,13.70
2019-04-20T03:15:37.709Z,13.70
2019-04-20T03:18:12.345Z,13.60
2019-04-20T03:20:41.652Z,13.60
2019-04-20T03:23:23.279Z,13.50
2019-04-20T03:25:55.915Z,13.50
2019-04-20T03:28:28.758Z,13.50
2019-04-20T03:36:18.142Z,13.40
2019-04-20T03:38:36.095Z,13.40
2019-04-20T03:41:01.394Z,13.30
2019-04-20T03:43:22.164Z,13.30
2019-04-20T03:45:59.485Z,13.30
2019-04-20T03:48:40.945Z,13.20
2019-04-20T03:51:17.111Z,13.10
2019-04-20T03:54:07.603Z,13.10
2019-04-20T03:56:42.291Z,13.10
2019-04-20T03:59:51.022Z,13.10
2019-04-20T04:05:32.371Z,13.00
2019-04-20T04:08:01.226Z,13.10
2019-04-20T04:10:31.047Z,13.00
2019-04-20T04:13:10.073Z,13.00
2019-04-20T04:15:46.557Z,13.00
2019-04-20T04:18:19.782Z,13.00
2019-04-20T04:20:53.296Z,13.00
2019-04-20T04:23:35.653Z,13.00
2019-04-20T04:26:12.931Z,12.90
2019-04-20T04:28:36.975Z,12.90
2019-04-20T04:31:12.198Z,12.90
2019-04-20T04:36:10.515Z,12.90
2019-04-20T04:38:47.507Z,12.90
2019-04-20T04:41:20.285Z,12.90
2019-04-20T04:43:44.337Z,12.90
2019-04-20T04:45:59.674Z,12.80
2019-04-20T04:48:35.093Z,12.80
2019-04-20T04:51:08.387Z,12.80
2019-04-20T04:53:44.237Z,12.80
2019-04-20T04:56:10.699Z,12.80
2019-04-20T04:58:36.337Z,12.80
2019-04-20T05:01:12.709Z,12.80
2019-04-20T05:04:05.300Z,12.80
2019-04-20T05:06:31.871Z,12.80
2019-04-20T05:08:53.069Z,12.80
2019-04-20T05:11:20.054Z,12.80
2019-04-20T05:13:56.624Z,12.80
2019-04-20T05:16:40.938Z,12.80
2019-04-20T05:22:00.438Z,13.30
2019-04-20T05:24:30.576Z,13.90
2019-04-20T05:27:30.162Z,14.30
2019-04-20T05:29:42.750Z,14.60
2019-04-20T05:32:17.996Z,15.30
2019-04-20T05:35:12.177Z,15.60
2019-04-20T05:37:48.701Z,15.50
2019-04-20T05:40:12.315Z,15.20
2019-04-20T05:42:49.911Z,15.10
2019-04-20T05:45:18.079Z,15.00
2019-04-20T05:47:47.987Z,14.90
2019-04-20T05:50:23.562Z,15.10
2019-04-20T05:53:03.966Z,15.10
2019-04-20T05:55:27.822Z,15.00
2019-04-20T05:58:02.116Z,14.80
2019-04-20T06:00:38.988Z,14.70
2019-04-20T06:02:57.833Z,14.70
2019-04-20T06:05:36.400Z,14.60
2019-04-20T06:08:05.365Z,14.60
2019-04-20T06:10:38.470Z,14.70
2019-04-20T06:13:14.742Z,14.90
2019-04-20T06:15:53.843Z,15.10
2019-04-20T06:18:33.639Z,15.50
2019-04-20T06:21:13.663Z,16.10
2019-04-20T06:23:58.823Z,16.70
2019-04-20T06:26:47.068Z,17.40
2019-04-20T06:28:50.842Z,18.30
2019-04-20T06:31:34.156Z,18.90
2019-04-20T06:34:30.335Z,19.50
2019-04-20T06:44:32.237Z,20.80
2019-04-20T06:47:11.577Z,21.10
2019-04-20T06:49:33.505Z,21.30
2019-04-20T06:52:32.403Z,21.60
2019-04-20T06:55:11.115Z,21.90
2019-04-20T06:57:45.037Z,22.00
2019-04-20T07:00:18.023Z,22.00
2019-04-20T07:03:07.965Z,22.10
2019-04-20T07:05:22.320Z,22.00
2019-04-20T07:07:51.798Z,21.80
2019-04-20T07:10:25.295Z,21.90
2019-04-20T07:12:53.649Z,22.10
2019-04-20T07:15:22.881Z,22.00
2019-04-20T07:18:06.177Z,22.30
2019-04-20T07:21:05.751Z,22.10
2019-04-20T07:23:26.916Z,21.90
2019-04-20T07:26:06.767Z,21.90
2019-04-20T07:28:31.308Z,22.10
2019-04-20T07:31:05.649Z,22.20
2019-04-20T07:33:32.208Z,22.20
2019-04-20T07:36:05.906Z,22.10
2019-04-20T07:38:40.292Z,22.20
2019-04-20T07:41:08.948Z,22.40
2019-04-20T07:43:51.195Z,22.70
2019-04-20T07:46:23.828Z,23.20
2019-04-20T07:48:48.208Z,23.60
2019-04-20T07:51:04.929Z,23.60
2019-04-20T07:53:40.340Z,23.90
2019-04-20T07:56:28.365Z,23.60
2019-04-20T07:58:41.382Z,23.40
2019-04-20T08:01:40.210Z,23.10
2019-04-20T08:04:08.087Z,23.00
2019-04-20T08:06:40.771Z,22.90
2019-04-20T08:09:22.039Z,23.30
2019-04-20T08:12:11.765Z,23.40
2019-04-20T08:14:39.284Z,23.60
2019-04-20T08:17:22.212Z,23.50
2019-04-20T08:19:40.999Z,23.60
2019-04-20T08:22:15.524Z,23.90
2019-04-20T08:24:46.864Z,24.00
2019-04-20T08:27:13.140Z,24.20
2019-04-20T08:30:02.002Z,24.30
2019-04-20T08:33:09.532Z,24.40
2019-04-20T08:35:55.060Z,24.10
2019-04-20T08:38:55.947Z,24.50
2019-04-20T08:40:54.923Z,24.50
2019-04-20T08:43:38.314Z,24.40
2019-04-20T08:45:58.880Z,24.40
2019-04-20T08:48:31.361Z,24.20
2019-04-20T08:51:02.371Z,23.80
2019-04-20T08:53:34.697Z,23.60
2019-04-20T08:55:55.332Z,23.60
2019-04-20T08:58:13.778Z,23.80
2019-04-20T09:00:49.958Z,23.80
2019-04-20T09:03:21.934Z,23.70
2019-04-20T09:06:00.514Z,23.70
2019-04-20T09:08:26.001Z,23.90
2019-04-20T09:11:10.260Z,24.20
2019-04-20T09:13:32.081Z,23.80
2019-04-20T09:15:55.761Z,23.60
2019-04-20T09:18:39.054Z,23.40
2019-04-20T09:21:09.610Z,23.00
2019-04-20T09:23:45.678Z,22.90
2019-04-20T09:26:20.229Z,22.70
2019-04-20T09:29:06.928Z,22.70
2019-04-20T09:31:46.959Z,22.60
2019-04-20T09:34:45.262Z,22.70
2019-04-20T09:37:41.337Z,22.70
2019-04-20T09:39:53.269Z,22.60
2019-04-20T09:42:34.714Z,22.70
2019-04-20T09:45:21.366Z,22.90
2019-04-20T09:47:49.829Z,22.90
2019-04-20T09:50:38.768Z,22.90
2019-04-20T09:53:10.193Z,22.90
2019-04-20T09:55:42.509Z,22.90
2019-04-20T09:58:18.070Z,23.00
2019-04-20T10:00:58.150Z,23.00
2019-04-20T10:03:22.648Z,23.10
2019-04-20T10:05:59.267Z,23.30
2019-04-20T10:08:44.729Z,23.20
2019-04-20T10:11:12.046Z,23.30
2019-04-20T10:13:48.137Z,23.40
2019-04-20T10:16:19.966Z,23.40
2019-04-20T10:18:53.655Z,23.50
2019-04-20T10:21:26.126Z,23.60
2019-04-20T10:24:00.943Z,23.70
2019-04-20T10:26:32.331Z,23.90
2019-04-20T10:29:05.701Z,23.80
2019-04-20T10:31:42.587Z,23.60
2019-04-20T10:34:11.607Z,23.50
2019-04-20T10:37:06.391Z,23.40
2019-04-20T10:39:41.013Z,23.40
2019-04-20T10:42:18.444Z,23.30
2019-04-20T10:44:56.732Z,23.30
2019-04-20T10:47:34.945Z,23.30
2019-04-20T10:50:11.306Z,23.40
2019-04-20T10:52:49.983Z,23.40
2019-04-20T10:55:27.210Z,23.50
2019-04-20T10:58:04.093Z,23.60
2019-04-20T11:00:49.875Z,23.60
2019-04-20T11:03:22.781Z,23.60
2019-04-20T11:05:56.450Z,23.50
2019-04-20T11:08:28.837Z,23.50
2019-04-20T11:11:10.876Z,23.70
2019-04-20T11:13:37.746Z,23.60
2019-04-20T11:16:14.757Z,23.60
2019-04-20T11:18:51.935Z,23.70
2019-04-20T11:21:26.272Z,23.70
2019-04-20T11:24:00.318Z,23.70
2019-04-20T11:26:42.314Z,23.60
2019-04-20T11:29:16.067Z,23.60
2019-04-20T11:31:51.484Z,23.80
2019-04-20T11:34:25.810Z,23.90
2019-04-20T11:36:53.039Z,24.00
2019-04-20T11:39:23.091Z,24.20
2019-04-20T11:41:53.969Z,24.40
2019-04-20T11:44:26.935Z,24.30
2019-04-20T11:46:56.899Z,24.20
2019-04-20T11:49:27.801Z,24.00
2019-04-20T11:51:59.463Z,24.00
2019-04-20T11:54:30.411Z,24.00
2019-04-20T11:57:01.564Z,24.00
2019-04-20T11:59:34.971Z,24.10
2019-04-20T12:02:30.128Z,24.20
2019-04-20T12:05:12.731Z,24.40
2019-04-20T12:07:41.084Z,24.20
2019-04-20T12:10:16.967Z,24.20
2019-04-20T12:12:47.290Z,24.30
2019-04-20T12:15:16.881Z,24.40
2019-04-20T12:17:49.393Z,24.30
2019-04-20T12:20:20.912Z,24.10
2019-04-20T12:22:52.638Z,23.90
2019-04-20T12:25:23.796Z,23.80
2019-04-20T12:28:00.581Z,23.80
2019-04-20T12:30:30.338Z,23.90
2019-04-20T12:33:02.178Z,23.80
2019-04-20T12:35:34.186Z,23.90
2019-04-20T12:38:07.312Z,24.00
2019-04-20T12:40:37.969Z,24.00
2019-04-20T12:43:08.971Z,24.00
2019-04-20T12:45:39.961Z,24.00
2019-04-20T12:48:11.365Z,23.90
2019-04-20T12:50:41.691Z,23.90
2019-04-20T12:53:12.793Z,24.00
2019-04-20T12:55:44.277Z,24.00
2019-04-20T12:58:14.618Z,24.00
2019-04-20T13:00:49.224Z,24.00
2019-04-20T13:03:21.448Z,24.00
2019-04-20T13:05:58.178Z,24.00
2019-04-20T13:08:47.184Z,24.00
2019-04-20T13:11:34.712Z,24.10
2019-04-20T13:15:10.661Z,24.10
2019-04-20T13:17:42.117Z,24.00
2019-04-20T13:20:12.548Z,24.10
2019-04-20T13:22:44.178Z,24.10
2019-04-20T13:25:14.988Z,24.20
2019-04-20T13:27:47.325Z,24.10
2019-04-20T13:30:17.979Z,24.00
2019-04-20T13:32:48.047Z,24.00
2019-04-20T13:35:18.460Z,24.00
2019-04-20T13:37:49.854Z,24.10
2019-04-20T13:40:20.166Z,24.20
2019-04-20T13:42:50.272Z,24.10
2019-04-20T13:45:21.275Z,24.10
2019-04-20T13:47:51.305Z,24.20
2019-04-20T13:50:22.137Z,24.30
2019-04-20T13:52:53.032Z,24.30
2019-04-20T13:55:24.936Z,24.30
2019-04-20T13:58:17.930Z,24.20
2019-04-20T14:00:59.697Z,24.20
2019-04-20T14:03:32.436Z,24.20
2019-04-20T14:06:02.708Z,24.20
2019-04-20T14:08:33.756Z,24.30
2019-04-20T14:11:05.170Z,24.20
2019-04-20T14:13:41.992Z,24.20
2019-04-20T14:16:07.339Z,24.20
2019-04-20T14:18:37.479Z,24.00
2019-04-20T14:21:08.412Z,24.10
2019-04-20T14:23:39.486Z,24.10
2019-04-20T14:26:10.281Z,24.20
2019-04-20T14:28:42.935Z,24.30
2019-04-20T14:31:14.083Z,24.40
2019-04-20T14:33:44.641Z,24.50
2019-04-20T14:36:14.896Z,24.50
2019-04-20T14:38:47.018Z,24.40
2019-04-20T14:41:16.484Z,24.40
2019-04-20T14:43:46.980Z,24.40
2019-04-20T14:46:18.800Z,24.50
2019-04-20T14:48:49.091Z,24.40
2019-04-20T14:51:19.503Z,24.50
2019-04-20T14:53:51.560Z,24.50
2019-04-20T14:56:23.135Z,24.50
2019-04-20T14:59:07.533Z,24.50
2019-04-20T15:01:56.751Z,24.50
2019-04-20T15:04:29.075Z,24.40
2019-04-20T15:07:00.185Z,24.40
2019-04-20T15:09:33.695Z,24.30
2019-04-20T15:12:02.959Z,24.20
2019-04-20T15:14:36.782Z,24.20
2019-04-20T15:17:11.396Z,24.10
2019-04-20T15:19:49.618Z,24.00
2019-04-20T15:22:39.588Z,24.00
2019-04-20T15:25:13.729Z,24.00
2019-04-20T15:27:46.293Z,24.10
2019-04-20T15:30:20.499Z,24.10
2019-04-20T15:32:54.643Z,24.20
2019-04-20T15:35:26.334Z,24.20
2019-04-20T15:37:57.314Z,24.10
2019-04-20T15:40:29.021Z,24.10
2019-04-20T15:43:11.349Z,24.10
2019-04-20T15:45:39.131Z,24.00
2019-04-20T15:48:10.176Z,24.00
2019-04-20T15:50:43.629Z,24.00
2019-04-20T15:53:17.522Z,23.90
2019-04-20T15:55:49.202Z,24.00
2019-04-20T15:58:20.532Z,24.10
2019-04-20T16:00:54.510Z,24.00
2019-04-20T16:03:31.160Z,24.00
2019-04-20T16:06:03.452Z,24.10
2019-04-20T16:08:36.508Z,24.00
2019-04-20T16:11:07.213Z,24.00
2019-04-20T16:13:40.352Z,23.90
2019-04-20T16:18:56.939Z,23.80
2019-04-20T16:21:35.133Z,23.60
2019-04-20T16:24:13.244Z,23.70
2019-04-20T16:26:49.691Z,23.70
2019-04-20T16:29:19.938Z,23.80
2019-04-20T16:31:50.779Z,23.70
2019-04-20T16:34:29.541Z,23.60
2019-04-20T16:37:06.912Z,23.60
2019-04-20T16:39:36.817Z,23.50
2019-04-20T16:42:11.951Z,23.60
2019-04-20T16:44:45.226Z,23.60
2019-04-20T16:47:18.339Z,23.50
2019-04-20T16:49:50.872Z,23.50
2019-04-20T16:52:22.810Z,23.50
2019-04-20T16:54:53.560Z,23.40
2019-04-20T16:57:23.692Z,23.40
2019-04-20T16:59:56.441Z,23.40
2019-04-20T17:02:26.473Z,23.30
2019-04-20T17:04:56.629Z,23.20
2019-04-20T17:07:37.173Z,23.10
2019-04-20T17:10:09.721Z,23.20
2019-04-20T17:12:39.923Z,23.10
2019-04-20T17:15:14.026Z,23.20
2019-04-20T17:17:50.282Z,23.10
2019-04-20T17:20:22.305Z,23.00
2019-04-20T17:22:54.233Z,23.00
2019-04-20T17:25:24.172Z,23.00
2019-04-20T17:28:12.957Z,22.90
2019-04-20T17:31:07.175Z,23.00
2019-04-20T17:33:53.415Z,22.90
2019-04-20T17:36:21.826Z,22.80
2019-04-20T17:38:54.363Z,22.70
2019-04-20T17:41:47.208Z,22.70
2019-04-20T17:44:14.340Z,22.60
2019-04-20T17:46:44.951Z,22.50
2019-04-20T17:49:25.651Z,22.50
2019-04-20T17:52:11.931Z,22.40
2019-04-20T17:54:39.802Z,22.40
2019-04-20T17:57:11.074Z,22.30
2019-04-20T17:59:52.968Z,22.20
2019-04-20T18:03:04.543Z,22.10
2019-04-20T18:05:55.830Z,22.10
2019-04-20T18:08:31.424Z,22.10
2019-04-20T18:10:57.254Z,22.00
2019-04-20T18:13:20.364Z,22.00
2019-04-20T18:16:04.989Z,21.90
2019-04-20T18:18:50.634Z,21.90
2019-04-20T18:21:34.875Z,21.90
2019-04-20T18:24:23.988Z,21.80
2019-04-20T18:27:07.049Z,21.70
2019-04-20T18:29:40.850Z,21.60
2019-04-20T18:32:17.961Z,21.50
2019-04-20T18:34:59.170Z,21.40
2019-04-20T18:37:28.907Z,21.30
2019-04-20T18:40:08.589Z,21.30
2019-04-20T18:42:43.443Z,21.30
2019-04-20T18:45:26.816Z,21.20
2019-04-20T18:47:59.973Z,21.20
2019-04-20T18:50:22.934Z,21.10
2019-04-20T18:52:50.011Z,21.10
2019-04-20T18:55:33.223Z,21.00
2019-04-20T18:57:59.259Z,21.00
2019-04-20T19:00:33.895Z,20.90
2019-04-20T19:03:18.231Z,20.80
2019-04-20T19:05:47.591Z,20.80
2019-04-20T19:08:19.252Z,20.70
2019-04-20T19:11:00.137Z,20.60
2019-04-20T19:14:13.136Z,20.50
2019-04-20T19:17:00.630Z,20.40
2019-04-20T19:19:36.969Z,20.30
2019-04-20T19:22:03.894Z,20.20
2019-04-20T19:24:39.812Z,20.20
2019-04-20T19:27:16.092Z,20.10
2019-04-20T19:29:55.196Z,20.00
2019-04-20T19:32:32.411Z,19.90
2019-04-20T19:34:59.351Z,19.90
2019-04-20T19:37:28.534Z,19.80
2019-04-20T19:40:06.780Z,19.70
2019-04-20T19:42:41.071Z,19.70
2019-04-20T19:45:26.291Z,19.60
2019-04-20T19:47:48.259Z,19.50
2019-04-20T19:50:31.265Z,19.50
2019-04-20T19:52:56.102Z,19.40
2019-04-20T19:55:20.929Z,19.30
2019-04-20T19:57:50.529Z,19.30
2019-04-20T20:00:09.614Z,19.20
2019-04-20T20:02:41.357Z,19.20
2019-04-20T20:05:15.300Z,19.10
2019-04-20T20:07:46.356Z,19.10
2019-04-20T20:10:14.850Z,19.00
2019-04-20T20:12:48.315Z,18.90
2019-04-20T20:15:24.301Z,18.90
2019-04-20T20:18:10.240Z,18.80
2019-04-20T20:20:42.978Z,18.80
2019-04-20T20:22:53.418Z,18.70
2019-04-20T20:25:24.377Z,18.70
2019-04-20T20:27:58.439Z,18.60
2019-04-20T20:30:33.167Z,18.60
2019-04-20T20:33:16.035Z,18.50
2019-04-20T20:35:29.767Z,18.40
2019-04-20T20:38:02.234Z,18.40
2019-04-20T20:40:34.658Z,18.30
2019-04-20T20:43:12.606Z,18.20
2019-04-20T20:45:39.657Z,18.20
2019-04-20T20:48:22.895Z,18.10
2019-04-20T20:50:53.278Z,18.10
2019-04-20T20:53:16.407Z,18.00
2019-04-20T20:55:44.125Z,17.90
2019-04-20T20:58:18.229Z,17.80
2019-04-20T21:00:54.000Z,17.80
2019-04-20T21:03:22.125Z,17.70
2019-04-20T21:05:45.459Z,17.60
2019-04-20T21:08:15.624Z,17.60
2019-04-20T21:10:46.371Z,17.50
2019-04-20T21:13:17.338Z,17.40
2019-04-20T21:15:53.843Z,17.40
2019-04-20T21:18:36.816Z,17.30
2019-04-20T21:21:06.489Z,17.30
2019-04-20T21:23:35.374Z,17.20
2019-04-20T21:26:12.722Z,17.10
2019-04-20T21:28:41.741Z,17.00
2019-04-20T21:31:16.821Z,17.00
2019-04-20T21:33:44.794Z,17.00
2019-04-20T21:36:19.051Z,16.90
2019-04-20T21:38:46.872Z,16.80
2019-04-20T21:41:20.202Z,16.80
2019-04-20T21:43:49.846Z,16.70
2019-04-20T21:46:20.792Z,16.70
2019-04-20T21:49:04.320Z,16.70
2019-04-20T21:51:34.555Z,16.60
2019-04-20T21:53:56.385Z,16.50
2019-04-20T21:56:25.960Z,16.50
2019-04-20T21:59:00.710Z,16.40
2019-04-20T22:01:34.533Z,16.40
2019-04-20T22:04:00.243Z,16.30
2019-04-20T22:06:31.927Z,16.30
2019-04-20T22:09:04.036Z,16.20
2019-04-20T22:11:35.807Z,16.10
2019-04-20T22:14:11.658Z,16.10
2019-04-20T22:16:43.583Z,16.00
2019-04-20T22:19:20.950Z,16.00
2019-04-20T22:21:53.406Z,15.90
2019-04-20T22:24:28.460Z,15.80
2019-04-20T22:26:58.313Z,15.80
2019-04-20T22:29:14.516Z,15.70
2019-04-20T22:31:52.223Z,15.60
2019-04-20T22:34:20.953Z,15.60
2019-04-20T22:36:50.065Z,15.50
2019-04-20T22:39:31.982Z,15.50
2019-04-20T22:42:00.162Z,15.40
2019-04-20T22:44:30.539Z,15.40
2019-04-20T22:47:00.496Z,15.30
2019-04-20T22:49:45.754Z,15.20
2019-04-20T22:52:18.044Z,15.20
2019-04-20T22:54:52.204Z,15.20
2019-04-20T22:57:21.616Z,15.10
2019-04-20T22:59:45.928Z,15.10
2019-04-20T23:02:08.458Z,15.10
2019-04-20T23:04:40.204Z,15.00
2019-04-20T23:07:10.724Z,15.00
2019-04-20T23:09:49.068Z,14.90
2019-04-20T23:12:17.768Z,14.90
2019-04-20T23:14:44.595Z,14.80
2019-04-20T23:17:18.099Z,14.80
2019-04-20T23:20:01.371Z,14.70
2019-04-20T23:22:36.918Z,14.70
2019-04-20T23:25:01.007Z,14.70
2019-04-20T23:27:32.122Z,14.60
2019-04-20T23:30:10.975Z,14.50
2019-04-20T23:32:35.770Z,14.50
2019-04-20T23:35:12.877Z,14.40
2019-04-20T23:37:39.989Z,14.40
2019-04-20T23:40:12.777Z,14.30
2019-04-20T23:42:46.038Z,14.30
2019-04-20T23:45:31.456Z,14.20
2019-04-20T23:48:04.303Z,14.20
2019-04-20T23:50:47.553Z,14.20
2019-04-20T23:53:22.888Z,14.20
2019-04-20T23:55:36.104Z,14.10
2019-04-20T23:58:08.797Z,14.10
